sensor_id;sensor_type;location;lat;lon;timestamp;P1;durP1;ratioP1;P2;durP2;ratioP2
28270;SDS011;15527;0.000;0.000;2023-04-12T00:00:46;8.13;;;2.13;;
28270;SDS011;15527;0.000;0.000;2023-04-12T00:01:45;5.17;;;1.90;;
28270;SDS011;15527;0.000;0.000;2023-04-12T00:02:43;5.10;;;2.07;;
28270;SDS011;15527;0.000;0.000;2023-04-12T00:03:42;4.73;;;1.80;;
28270;SDS011;15527;0.000;0.000;2023-04-12T00:04:40;7.53;;;1.90;;
28270;SDS011;15527;0.000;0.000;2023-04-12T00:05:39;6.73;;;1.63;;
28270;SDS011;15527;0.000;0.000;2023-04-12T00:06:43;5.73;;;1.90;;
28270;SDS011;15527;0.000;0.000;2023-04-12T00:07:45;5.40;;;2.00;;
28270;SDS011;15527;0.000;0.000;2023-04-12T00:08:45;4.10;;;1.70;;
28270;SDS011;15527;0.000;0.000;2023-04-12T00:09:43;6.13;;;2.10;;
28270;SDS011;15527;0.000;0.000;2023-04-12T00:10:42;5.77;;;1.70;;
28270;SDS011;15527;0.000;0.000;2023-04-12T00:11:40;2.73;;;1.53;;
28270;SDS011;15527;0.000;0.000;2023-04-12T00:12:39;4.43;;;1.70;;
28270;SDS011;15527;0.000;0.000;2023-04-12T00:13:38;6.70;;;2.00;;
28270;SDS011;15527;0.000;0.000;2023-04-12T00:14:36;9.63;;;2.30;;
28270;SDS011;15527;0.000;0.000;2023-04-12T00:15:35;4.23;;;1.90;;
28270;SDS011;15527;0.000;0.000;2023-04-12T00:16:34;3.13;;;1.53;;
28270;SDS011;15527;0.000;0.000;2023-04-12T00:17:33;5.10;;;1.50;;
28270;SDS011;15527;0.000;0.000;2023-04-12T00:18:32;5.10;;;1.50;;
28270;SDS011;15527;0.000;0.000;2023-04-12T00:19:31;5.07;;;1.73;;
28270;SDS011;15527;0.000;0.000;2023-04-12T00:20:29;5.80;;;2.10;;
28270;SDS011;15527;0.000;0.000;2023-04-12T00:21:28;7.50;;;1.73;;
28270;SDS011;15527;0.000;0.000;2023-04-12T00:22:27;4.73;;;1.73;;
28270;SDS011;15527;0.000;0.000;2023-04-12T00:23:26;6.43;;;2.07;;
28270;SDS011;15527;0.000;0.000;2023-04-12T00:24:25;4.33;;;1.80;;
28270;SDS011;15527;0.000;0.000;2023-04-12T00:25:23;5.70;;;1.93;;
28270;SDS011;15527;0.000;0.000;2023-04-12T00:26:22;3.40;;;2.07;;
28270;SDS011;15527;0.000;0.000;2023-04-12T00:27:22;5.70;;;1.77;;
28270;SDS011;15527;0.000;0.000;2023-04-12T00:28:22;7.37;;;1.60;;
28270;SDS011;15527;0.000;0.000;2023-04-12T00:29:21;8.07;;;2.03;;
28270;SDS011;15527;0.000;0.000;2023-04-12T00:30:20;2.70;;;1.40;;
28270;SDS011;15527;0.000;0.000;2023-04-12T00:31:19;5.23;;;1.90;;
28270;SDS011;15527;0.000;0.000;2023-04-12T00:32:17;6.67;;;2.00;;
28270;SDS011;15527;0.000;0.000;2023-04-12T00:33:16;2.77;;;1.73;;
28270;SDS011;15527;0.000;0.000;2023-04-12T00:34:14;7.37;;;1.97;;
28270;SDS011;15527;0.000;0.000;2023-04-12T00:35:14;4.93;;;1.70;;
28270;SDS011;15527;0.000;0.000;2023-04-12T00:36:12;3.87;;;1.80;;
28270;SDS011;15527;0.000;0.000;2023-04-12T00:37:11;4.43;;;1.60;;
28270;SDS011;15527;0.000;0.000;2023-04-12T00:38:09;6.07;;;1.77;;
28270;SDS011;15527;0.000;0.000;2023-04-12T00:39:08;5.60;;;1.80;;
28270;SDS011;15527;0.000;0.000;2023-04-12T00:40:07;6.17;;;2.00;;
28270;SDS011;15527;0.000;0.000;2023-04-12T00:41:07;5.33;;;2.00;;
28270;SDS011;15527;0.000;0.000;2023-04-12T00:42:05;5.60;;;2.00;;
28270;SDS011;15527;0.000;0.000;2023-04-12T00:43:04;6.67;;;1.60;;
28270;SDS011;15527;0.000;0.000;2023-04-12T00:44:03;4.17;;;2.10;;
28270;SDS011;15527;0.000;0.000;2023-04-12T00:45:01;5.63;;;1.77;;
28270;SDS011;15527;0.000;0.000;2023-04-12T00:46:00;4.50;;;2.13;;
28270;SDS011;15527;0.000;0.000;2023-04-12T00:46:59;4.33;;;1.97;;
28270;SDS011;15527;0.000;0.000;2023-04-12T00:47:58;4.13;;;1.80;;
28270;SDS011;15527;0.000;0.000;2023-04-12T00:48:57;7.03;;;1.87;;
28270;SDS011;15527;0.000;0.000;2023-04-12T00:49:55;6.43;;;2.00;;
28270;SDS011;15527;0.000;0.000;2023-04-12T00:50:55;6.47;;;1.90;;
28270;SDS011;15527;0.000;0.000;2023-04-12T00:52:03;4.60;;;1.83;;
28270;SDS011;15527;0.000;0.000;2023-04-12T00:53:05;4.00;;;1.77;;
28270;SDS011;15527;0.000;0.000;2023-04-12T00:54:06;4.93;;;1.80;;
28270;SDS011;15527;0.000;0.000;2023-04-12T00:55:05;4.80;;;1.60;;
28270;SDS011;15527;0.000;0.000;2023-04-12T00:56:06;5.30;;;1.53;;
28270;SDS011;15527;0.000;0.000;2023-04-12T00:57:05;5.43;;;2.10;;
28270;SDS011;15527;0.000;0.000;2023-04-12T00:58:04;7.13;;;2.20;;
28270;SDS011;15527;0.000;0.000;2023-04-12T00:59:02;5.70;;;2.10;;
28270;SDS011;15527;0.000;0.000;2023-04-12T01:00:02;5.23;;;2.00;;
28270;SDS011;15527;0.000;0.000;2023-04-12T01:01:02;8.07;;;2.40;;
28270;SDS011;15527;0.000;0.000;2023-04-12T01:02:01;5.10;;;2.00;;
28270;SDS011;15527;0.000;0.000;2023-04-12T01:03:00;5.77;;;1.60;;
28270;SDS011;15527;0.000;0.000;2023-04-12T01:04:00;6.07;;;2.10;;
28270;SDS011;15527;0.000;0.000;2023-04-12T01:05:01;6.73;;;2.90;;
28270;SDS011;15527;0.000;0.000;2023-04-12T01:07:16;4.43;;;1.83;;
28270;SDS011;15527;0.000;0.000;2023-04-12T01:08:27;5.13;;;1.87;;
28270;SDS011;15527;0.000;0.000;2023-04-12T01:11:12;4.37;;;2.00;;
28270;SDS011;15527;0.000;0.000;2023-04-12T01:12:25;4.20;;;1.73;;
28270;SDS011;15527;0.000;0.000;2023-04-12T01:13:50;6.47;;;2.23;;
28270;SDS011;15527;0.000;0.000;2023-04-12T01:15:20;4.43;;;2.17;;
28270;SDS011;15527;0.000;0.000;2023-04-12T01:16:27;2.30;;;2.03;;
28270;SDS011;15527;0.000;0.000;2023-04-12T01:18:55;5.87;;;2.00;;
28270;SDS011;15527;0.000;0.000;2023-04-12T01:20:01;5.87;;;2.23;;
28270;SDS011;15527;0.000;0.000;2023-04-12T01:21:17;3.90;;;2.20;;
28270;SDS011;15527;0.000;0.000;2023-04-12T01:22:30;10.07;;;2.50;;
28270;SDS011;15527;0.000;0.000;2023-04-12T01:25:39;6.23;;;2.30;;
28270;SDS011;15527;0.000;0.000;2023-04-12T01:26:43;6.20;;;2.20;;
28270;SDS011;15527;0.000;0.000;2023-04-12T01:27:45;5.33;;;2.33;;
28270;SDS011;15527;0.000;0.000;2023-04-12T01:28:48;5.93;;;2.57;;
28270;SDS011;15527;0.000;0.000;2023-04-12T01:29:50;6.33;;;2.33;;
28270;SDS011;15527;0.000;0.000;2023-04-12T01:30:51;4.60;;;2.33;;
28270;SDS011;15527;0.000;0.000;2023-04-12T01:31:58;7.50;;;2.33;;
28270;SDS011;15527;0.000;0.000;2023-04-12T01:32:59;5.13;;;2.10;;
28270;SDS011;15527;0.000;0.000;2023-04-12T01:34:00;4.10;;;1.90;;
28270;SDS011;15527;0.000;0.000;2023-04-12T01:35:02;8.73;;;2.70;;
28270;SDS011;15527;0.000;0.000;2023-04-12T01:36:08;4.40;;;2.17;;
28270;SDS011;15527;0.000;0.000;2023-04-12T01:37:09;6.77;;;3.10;;
28270;SDS011;15527;0.000;0.000;2023-04-12T01:38:08;7.70;;;2.30;;
28270;SDS011;15527;0.000;0.000;2023-04-12T01:39:07;7.47;;;1.93;;
28270;SDS011;15527;0.000;0.000;2023-04-12T01:40:07;5.37;;;2.10;;
28270;SDS011;15527;0.000;0.000;2023-04-12T01:41:06;5.60;;;2.27;;
28270;SDS011;15527;0.000;0.000;2023-04-12T01:42:06;6.00;;;2.20;;
28270;SDS011;15527;0.000;0.000;2023-04-12T01:44:07;5.40;;;2.23;;
28270;SDS011;15527;0.000;0.000;2023-04-12T01:45:06;7.00;;;2.60;;
28270;SDS011;15527;0.000;0.000;2023-04-12T01:46:05;5.30;;;2.50;;
28270;SDS011;15527;0.000;0.000;2023-04-12T01:47:03;8.37;;;2.73;;
28270;SDS011;15527;0.000;0.000;2023-04-12T01:48:06;6.00;;;2.40;;
28270;SDS011;15527;0.000;0.000;2023-04-12T01:49:06;5.63;;;2.40;;
28270;SDS011;15527;0.000;0.000;2023-04-12T01:50:21;6.80;;;2.47;;
28270;SDS011;15527;0.000;0.000;2023-04-12T01:53:00;5.13;;;2.10;;
28270;SDS011;15527;0.000;0.000;2023-04-12T01:54:07;7.47;;;2.30;;
28270;SDS011;15527;0.000;0.000;2023-04-12T01:55:08;8.37;;;2.50;;
28270;SDS011;15527;0.000;0.000;2023-04-12T01:56:09;6.87;;;2.70;;
28270;SDS011;15527;0.000;0.000;2023-04-12T01:57:09;5.43;;;2.37;;
28270;SDS011;15527;0.000;0.000;2023-04-12T01:58:09;6.87;;;2.70;;
28270;SDS011;15527;0.000;0.000;2023-04-12T01:59:09;6.57;;;2.50;;
28270;SDS011;15527;0.000;0.000;2023-04-12T02:00:11;6.33;;;3.07;;
28270;SDS011;15527;0.000;0.000;2023-04-12T02:01:11;12.67;;;3.10;;
28270;SDS011;15527;0.000;0.000;2023-04-12T02:02:12;6.67;;;2.80;;
28270;SDS011;15527;0.000;0.000;2023-04-12T02:03:11;5.17;;;3.20;;
28270;SDS011;15527;0.000;0.000;2023-04-12T02:04:10;7.00;;;2.47;;
28270;SDS011;15527;0.000;0.000;2023-04-12T02:05:11;6.97;;;2.40;;
28270;SDS011;15527;0.000;0.000;2023-04-12T02:06:10;5.57;;;2.37;;
28270;SDS011;15527;0.000;0.000;2023-04-12T02:07:09;5.47;;;2.80;;
28270;SDS011;15527;0.000;0.000;2023-04-12T02:08:09;6.67;;;2.50;;
28270;SDS011;15527;0.000;0.000;2023-04-12T02:09:09;7.80;;;2.60;;
28270;SDS011;15527;0.000;0.000;2023-04-12T02:10:11;5.37;;;2.30;;
28270;SDS011;15527;0.000;0.000;2023-04-12T02:11:11;7.53;;;2.93;;
28270;SDS011;15527;0.000;0.000;2023-04-12T02:12:11;5.27;;;2.80;;
28270;SDS011;15527;0.000;0.000;2023-04-12T02:13:10;7.00;;;2.90;;
28270;SDS011;15527;0.000;0.000;2023-04-12T02:14:09;7.57;;;2.70;;
28270;SDS011;15527;0.000;0.000;2023-04-12T02:15:07;7.07;;;2.77;;
28270;SDS011;15527;0.000;0.000;2023-04-12T02:16:06;4.87;;;2.10;;
28270;SDS011;15527;0.000;0.000;2023-04-12T02:17:07;3.87;;;2.30;;
28270;SDS011;15527;0.000;0.000;2023-04-12T02:18:06;5.13;;;2.20;;
28270;SDS011;15527;0.000;0.000;2023-04-12T02:19:05;5.83;;;2.50;;
28270;SDS011;15527;0.000;0.000;2023-04-12T02:20:06;3.80;;;2.50;;
28270;SDS011;15527;0.000;0.000;2023-04-12T02:21:06;6.90;;;2.70;;
28270;SDS011;15527;0.000;0.000;2023-04-12T02:22:05;5.10;;;3.00;;
28270;SDS011;15527;0.000;0.000;2023-04-12T02:23:05;4.23;;;2.20;;
28270;SDS011;15527;0.000;0.000;2023-04-12T02:24:03;5.30;;;2.37;;
28270;SDS011;15527;0.000;0.000;2023-04-12T02:25:03;6.43;;;2.47;;
28270;SDS011;15527;0.000;0.000;2023-04-12T02:26:03;5.97;;;2.53;;
28270;SDS011;15527;0.000;0.000;2023-04-12T02:27:02;4.90;;;1.90;;
28270;SDS011;15527;0.000;0.000;2023-04-12T02:28:00;5.03;;;2.10;;
28270;SDS011;15527;0.000;0.000;2023-04-12T02:28:59;5.50;;;2.80;;
28270;SDS011;15527;0.000;0.000;2023-04-12T02:29:57;7.23;;;2.53;;
28270;SDS011;15527;0.000;0.000;2023-04-12T02:30:56;7.87;;;2.30;;
28270;SDS011;15527;0.000;0.000;2023-04-12T02:31:55;5.37;;;2.13;;
28270;SDS011;15527;0.000;0.000;2023-04-12T02:32:54;5.33;;;2.20;;
28270;SDS011;15527;0.000;0.000;2023-04-12T02:33:53;6.20;;;2.10;;
28270;SDS011;15527;0.000;0.000;2023-04-12T02:34:51;5.63;;;2.30;;
28270;SDS011;15527;0.000;0.000;2023-04-12T02:35:50;5.23;;;2.17;;
28270;SDS011;15527;0.000;0.000;2023-04-12T02:36:49;5.37;;;2.43;;
28270;SDS011;15527;0.000;0.000;2023-04-12T02:37:47;4.63;;;2.10;;
28270;SDS011;15527;0.000;0.000;2023-04-12T02:38:46;6.73;;;2.13;;
28270;SDS011;15527;0.000;0.000;2023-04-12T02:39:47;3.03;;;1.97;;
28270;SDS011;15527;0.000;0.000;2023-04-12T02:40:46;5.07;;;2.23;;
28270;SDS011;15527;0.000;0.000;2023-04-12T02:41:45;4.77;;;2.17;;
28270;SDS011;15527;0.000;0.000;2023-04-12T02:42:43;6.67;;;2.60;;
28270;SDS011;15527;0.000;0.000;2023-04-12T02:43:42;4.83;;;2.13;;
28270;SDS011;15527;0.000;0.000;2023-04-12T02:44:41;5.83;;;2.23;;
28270;SDS011;15527;0.000;0.000;2023-04-12T02:45:45;4.57;;;2.27;;
28270;SDS011;15527;0.000;0.000;2023-04-12T02:46:44;4.90;;;2.30;;
28270;SDS011;15527;0.000;0.000;2023-04-12T02:47:42;4.50;;;2.17;;
28270;SDS011;15527;0.000;0.000;2023-04-12T02:48:41;6.90;;;2.20;;
28270;SDS011;15527;0.000;0.000;2023-04-12T02:49:39;7.50;;;2.17;;
28270;SDS011;15527;0.000;0.000;2023-04-12T02:50:38;4.80;;;2.10;;
28270;SDS011;15527;0.000;0.000;2023-04-12T02:51:37;5.33;;;2.30;;
28270;SDS011;15527;0.000;0.000;2023-04-12T02:52:36;5.53;;;2.20;;
28270;SDS011;15527;0.000;0.000;2023-04-12T02:53:34;4.07;;;2.10;;
28270;SDS011;15527;0.000;0.000;2023-04-12T02:54:33;4.00;;;2.10;;
28270;SDS011;15527;0.000;0.000;2023-04-12T02:55:31;3.10;;;2.10;;
28270;SDS011;15527;0.000;0.000;2023-04-12T02:56:30;4.67;;;2.37;;
28270;SDS011;15527;0.000;0.000;2023-04-12T02:57:31;6.90;;;2.67;;
28270;SDS011;15527;0.000;0.000;2023-04-12T02:58:30;5.77;;;2.40;;
28270;SDS011;15527;0.000;0.000;2023-04-12T02:59:30;3.17;;;2.30;;
28270;SDS011;15527;0.000;0.000;2023-04-12T03:00:29;5.63;;;2.53;;
28270;SDS011;15527;0.000;0.000;2023-04-12T03:01:27;4.37;;;2.23;;
28270;SDS011;15527;0.000;0.000;2023-04-12T03:02:26;3.67;;;2.13;;
28270;SDS011;15527;0.000;0.000;2023-04-12T03:03:25;3.43;;;2.10;;
28270;SDS011;15527;0.000;0.000;2023-04-12T03:04:25;4.07;;;2.17;;
28270;SDS011;15527;0.000;0.000;2023-04-12T03:05:27;5.10;;;2.60;;
28270;SDS011;15527;0.000;0.000;2023-04-12T03:06:26;2.50;;;1.97;;
28270;SDS011;15527;0.000;0.000;2023-04-12T03:07:24;6.03;;;2.20;;
28270;SDS011;15527;0.000;0.000;2023-04-12T03:08:23;8.43;;;2.50;;
28270;SDS011;15527;0.000;0.000;2023-04-12T03:09:21;7.03;;;2.17;;
28270;SDS011;15527;0.000;0.000;2023-04-12T03:10:20;3.67;;;1.93;;
28270;SDS011;15527;0.000;0.000;2023-04-12T03:11:19;5.07;;;2.10;;
28270;SDS011;15527;0.000;0.000;2023-04-12T03:12:17;5.43;;;2.00;;
28270;SDS011;15527;0.000;0.000;2023-04-12T03:13:16;2.77;;;1.87;;
28270;SDS011;15527;0.000;0.000;2023-04-12T03:14:14;3.47;;;2.20;;
28270;SDS011;15527;0.000;0.000;2023-04-12T03:15:13;5.07;;;2.03;;
28270;SDS011;15527;0.000;0.000;2023-04-12T03:16:24;3.90;;;2.17;;
28270;SDS011;15527;0.000;0.000;2023-04-12T03:17:26;7.00;;;2.60;;
28270;SDS011;15527;0.000;0.000;2023-04-12T03:18:25;2.30;;;1.50;;
28270;SDS011;15527;0.000;0.000;2023-04-12T03:19:23;4.90;;;2.00;;
28270;SDS011;15527;0.000;0.000;2023-04-12T03:20:22;3.90;;;2.37;;
28270;SDS011;15527;0.000;0.000;2023-04-12T03:21:22;4.43;;;1.87;;
28270;SDS011;15527;0.000;0.000;2023-04-12T03:22:20;3.97;;;2.10;;
28270;SDS011;15527;0.000;0.000;2023-04-12T03:23:20;2.73;;;2.00;;
28270;SDS011;15527;0.000;0.000;2023-04-12T03:24:18;6.40;;;2.33;;
28270;SDS011;15527;0.000;0.000;2023-04-12T03:25:17;5.40;;;2.20;;
28270;SDS011;15527;0.000;0.000;2023-04-12T03:26:16;5.43;;;2.00;;
28270;SDS011;15527;0.000;0.000;2023-04-12T03:27:17;5.57;;;2.10;;
28270;SDS011;15527;0.000;0.000;2023-04-12T03:28:15;4.20;;;1.60;;
28270;SDS011;15527;0.000;0.000;2023-04-12T03:29:14;4.07;;;2.07;;
28270;SDS011;15527;0.000;0.000;2023-04-12T03:30:13;5.03;;;2.23;;
28270;SDS011;15527;0.000;0.000;2023-04-12T03:31:12;3.87;;;2.10;;
28270;SDS011;15527;0.000;0.000;2023-04-12T03:32:10;4.43;;;1.77;;
28270;SDS011;15527;0.000;0.000;2023-04-12T03:33:09;1.97;;;1.70;;
28270;SDS011;15527;0.000;0.000;2023-04-12T03:34:08;3.57;;;2.17;;
28270;SDS011;15527;0.000;0.000;2023-04-12T03:35:07;4.03;;;1.80;;
28270;SDS011;15527;0.000;0.000;2023-04-12T03:36:06;5.87;;;2.00;;
28270;SDS011;15527;0.000;0.000;2023-04-12T03:37:05;5.00;;;1.90;;
28270;SDS011;15527;0.000;0.000;2023-04-12T03:38:04;3.37;;;2.00;;
28270;SDS011;15527;0.000;0.000;2023-04-12T03:39:02;3.73;;;2.03;;
28270;SDS011;15527;0.000;0.000;2023-04-12T03:40:01;5.27;;;1.90;;
28270;SDS011;15527;0.000;0.000;2023-04-12T03:41:00;4.00;;;1.70;;
28270;SDS011;15527;0.000;0.000;2023-04-12T03:41:58;2.87;;;1.60;;
28270;SDS011;15527;0.000;0.000;2023-04-12T03:42:57;5.00;;;1.87;;
28270;SDS011;15527;0.000;0.000;2023-04-12T03:43:55;4.03;;;1.70;;
28270;SDS011;15527;0.000;0.000;2023-04-12T03:44:54;5.30;;;2.23;;
28270;SDS011;15527;0.000;0.000;2023-04-12T03:45:52;2.83;;;1.67;;
28270;SDS011;15527;0.000;0.000;2023-04-12T03:46:51;2.83;;;1.87;;
28270;SDS011;15527;0.000;0.000;2023-04-12T03:47:49;2.90;;;1.77;;
28270;SDS011;15527;0.000;0.000;2023-04-12T03:48:48;3.97;;;1.80;;
28270;SDS011;15527;0.000;0.000;2023-04-12T03:49:48;3.67;;;1.90;;
28270;SDS011;15527;0.000;0.000;2023-04-12T03:50:47;2.93;;;1.40;;
28270;SDS011;15527;0.000;0.000;2023-04-12T03:51:46;4.70;;;1.93;;
28270;SDS011;15527;0.000;0.000;2023-04-12T03:52:47;3.87;;;1.80;;
28270;SDS011;15527;0.000;0.000;2023-04-12T03:53:46;6.13;;;2.00;;
28270;SDS011;15527;0.000;0.000;2023-04-12T03:54:44;3.73;;;1.93;;
28270;SDS011;15527;0.000;0.000;2023-04-12T03:55:43;3.10;;;1.80;;
28270;SDS011;15527;0.000;0.000;2023-04-12T03:56:41;4.67;;;1.73;;
28270;SDS011;15527;0.000;0.000;2023-04-12T03:57:40;3.63;;;1.33;;
28270;SDS011;15527;0.000;0.000;2023-04-12T03:58:39;6.30;;;1.87;;
28270;SDS011;15527;0.000;0.000;2023-04-12T03:59:38;2.50;;;1.63;;
28270;SDS011;15527;0.000;0.000;2023-04-12T04:00:36;3.20;;;1.70;;
28270;SDS011;15527;0.000;0.000;2023-04-12T04:01:35;3.77;;;1.87;;
28270;SDS011;15527;0.000;0.000;2023-04-12T04:02:34;6.47;;;2.07;;
28270;SDS011;15527;0.000;0.000;2023-04-12T04:03:32;4.83;;;1.63;;
28270;SDS011;15527;0.000;0.000;2023-04-12T04:04:32;4.90;;;1.73;;
28270;SDS011;15527;0.000;0.000;2023-04-12T04:05:30;3.40;;;1.80;;
28270;SDS011;15527;0.000;0.000;2023-04-12T04:06:29;3.20;;;1.53;;
28270;SDS011;15527;0.000;0.000;2023-04-12T04:07:28;3.03;;;1.80;;
28270;SDS011;15527;0.000;0.000;2023-04-12T04:08:27;4.47;;;1.80;;
28270;SDS011;15527;0.000;0.000;2023-04-12T04:09:26;4.17;;;1.60;;
28270;SDS011;15527;0.000;0.000;2023-04-12T04:10:24;1.90;;;1.50;;
28270;SDS011;15527;0.000;0.000;2023-04-12T04:11:24;4.43;;;1.90;;
28270;SDS011;15527;0.000;0.000;2023-04-12T04:12:24;2.33;;;1.43;;
28270;SDS011;15527;0.000;0.000;2023-04-12T04:13:22;3.00;;;1.80;;
28270;SDS011;15527;0.000;0.000;2023-04-12T04:14:21;4.07;;;1.60;;
28270;SDS011;15527;0.000;0.000;2023-04-12T04:15:19;5.63;;;1.87;;
28270;SDS011;15527;0.000;0.000;2023-04-12T04:16:18;2.77;;;1.67;;
28270;SDS011;15527;0.000;0.000;2023-04-12T04:17:16;2.30;;;1.60;;
28270;SDS011;15527;0.000;0.000;2023-04-12T04:18:15;3.70;;;1.40;;
28270;SDS011;15527;0.000;0.000;2023-04-12T04:19:13;1.30;;;1.20;;
28270;SDS011;15527;0.000;0.000;2023-04-12T04:20:12;2.90;;;1.63;;
28270;SDS011;15527;0.000;0.000;2023-04-12T04:21:13;2.20;;;1.50;;
28270;SDS011;15527;0.000;0.000;2023-04-12T04:22:11;2.77;;;1.40;;
28270;SDS011;15527;0.000;0.000;2023-04-12T04:23:10;2.27;;;1.73;;
28270;SDS011;15527;0.000;0.000;2023-04-12T04:24:09;5.07;;;1.53;;
28270;SDS011;15527;0.000;0.000;2023-04-12T04:25:08;2.40;;;1.63;;
28270;SDS011;15527;0.000;0.000;2023-04-12T04:26:07;2.50;;;1.27;;
28270;SDS011;15527;0.000;0.000;2023-04-12T04:27:09;2.53;;;1.43;;
28270;SDS011;15527;0.000;0.000;2023-04-12T04:28:07;2.83;;;1.77;;
28270;SDS011;15527;0.000;0.000;2023-04-12T04:29:06;2.23;;;1.40;;
28270;SDS011;15527;0.000;0.000;2023-04-12T04:30:05;4.10;;;1.50;;
28270;SDS011;15527;0.000;0.000;2023-04-12T04:31:04;3.93;;;1.60;;
28270;SDS011;15527;0.000;0.000;2023-04-12T04:32:03;3.40;;;1.53;;
28270;SDS011;15527;0.000;0.000;2023-04-12T04:33:01;3.63;;;1.60;;
28270;SDS011;15527;0.000;0.000;2023-04-12T04:34:03;3.07;;;1.73;;
28270;SDS011;15527;0.000;0.000;2023-04-12T04:35:02;1.70;;;1.60;;
28270;SDS011;15527;0.000;0.000;2023-04-12T04:36:01;1.60;;;1.50;;
28270;SDS011;15527;0.000;0.000;2023-04-12T04:37:04;2.87;;;1.57;;
28270;SDS011;15527;0.000;0.000;2023-04-12T04:38:03;3.60;;;1.47;;
28270;SDS011;15527;0.000;0.000;2023-04-12T04:39:02;3.77;;;1.40;;
28270;SDS011;15527;0.000;0.000;2023-04-12T04:40:01;3.90;;;1.73;;
28270;SDS011;15527;0.000;0.000;2023-04-12T04:41:08;2.57;;;1.57;;
28270;SDS011;15527;0.000;0.000;2023-04-12T04:42:07;4.00;;;1.50;;
28270;SDS011;15527;0.000;0.000;2023-04-12T04:43:06;4.07;;;1.30;;
28270;SDS011;15527;0.000;0.000;2023-04-12T04:44:06;4.80;;;1.40;;
28270;SDS011;15527;0.000;0.000;2023-04-12T04:45:10;4.27;;;1.60;;
28270;SDS011;15527;0.000;0.000;2023-04-12T04:46:11;2.20;;;1.47;;
28270;SDS011;15527;0.000;0.000;2023-04-12T04:47:10;3.73;;;1.50;;
28270;SDS011;15527;0.000;0.000;2023-04-12T04:48:09;2.23;;;1.50;;
28270;SDS011;15527;0.000;0.000;2023-04-12T04:49:07;3.23;;;1.53;;
28270;SDS011;15527;0.000;0.000;2023-04-12T04:50:06;1.83;;;1.63;;
28270;SDS011;15527;0.000;0.000;2023-04-12T04:51:05;2.83;;;1.40;;
28270;SDS011;15527;0.000;0.000;2023-04-12T04:52:11;3.80;;;1.63;;
28270;SDS011;15527;0.000;0.000;2023-04-12T04:53:14;2.83;;;1.50;;
28270;SDS011;15527;0.000;0.000;2023-04-12T04:54:17;2.80;;;1.67;;
28270;SDS011;15527;0.000;0.000;2023-04-12T04:55:19;4.77;;;1.70;;
28270;SDS011;15527;0.000;0.000;2023-04-12T04:56:24;1.83;;;1.60;;
28270;SDS011;15527;0.000;0.000;2023-04-12T04:57:23;2.43;;;1.83;;
28270;SDS011;15527;0.000;0.000;2023-04-12T04:58:23;3.60;;;1.90;;
28270;SDS011;15527;0.000;0.000;2023-04-12T04:59:23;2.33;;;1.40;;
28270;SDS011;15527;0.000;0.000;2023-04-12T05:00:22;3.37;;;1.60;;
28270;SDS011;15527;0.000;0.000;2023-04-12T05:01:23;3.03;;;1.40;;
28270;SDS011;15527;0.000;0.000;2023-04-12T05:02:25;3.20;;;1.90;;
28270;SDS011;15527;0.000;0.000;2023-04-12T05:03:25;3.50;;;1.70;;
28270;SDS011;15527;0.000;0.000;2023-04-12T05:04:26;3.77;;;1.70;;
28270;SDS011;15527;0.000;0.000;2023-04-12T05:05:25;3.53;;;1.97;;
28270;SDS011;15527;0.000;0.000;2023-04-12T05:06:24;3.77;;;1.90;;
28270;SDS011;15527;0.000;0.000;2023-04-12T05:07:22;1.90;;;1.60;;
28270;SDS011;15527;0.000;0.000;2023-04-12T05:08:22;2.33;;;1.77;;
28270;SDS011;15527;0.000;0.000;2023-04-12T05:09:22;5.23;;;2.13;;
28270;SDS011;15527;0.000;0.000;2023-04-12T05:10:21;4.87;;;1.60;;
28270;SDS011;15527;0.000;0.000;2023-04-12T05:11:19;3.93;;;1.83;;
28270;SDS011;15527;0.000;0.000;2023-04-12T05:12:18;4.77;;;2.27;;
28270;SDS011;15527;0.000;0.000;2023-04-12T05:13:17;3.73;;;2.20;;
28270;SDS011;15527;0.000;0.000;2023-04-12T05:14:15;3.03;;;2.20;;
28270;SDS011;15527;0.000;0.000;2023-04-12T05:15:14;2.87;;;1.70;;
28270;SDS011;15527;0.000;0.000;2023-04-12T05:16:13;4.37;;;2.00;;
28270;SDS011;15527;0.000;0.000;2023-04-12T05:17:11;3.93;;;1.73;;
28270;SDS011;15527;0.000;0.000;2023-04-12T05:18:10;5.40;;;2.07;;
28270;SDS011;15527;0.000;0.000;2023-04-12T05:19:08;4.47;;;2.10;;
28270;SDS011;15527;0.000;0.000;2023-04-12T05:20:07;4.60;;;1.87;;
28270;SDS011;15527;0.000;0.000;2023-04-12T05:21:07;2.20;;;1.63;;
28270;SDS011;15527;0.000;0.000;2023-04-12T05:22:06;6.30;;;2.30;;
28270;SDS011;15527;0.000;0.000;2023-04-12T05:23:04;3.30;;;1.97;;
28270;SDS011;15527;0.000;0.000;2023-04-12T05:24:03;3.73;;;2.13;;
28270;SDS011;15527;0.000;0.000;2023-04-12T05:25:01;3.60;;;2.50;;
28270;SDS011;15527;0.000;0.000;2023-04-12T05:26:00;4.00;;;2.07;;
28270;SDS011;15527;0.000;0.000;2023-04-12T05:26:59;3.27;;;2.00;;
28270;SDS011;15527;0.000;0.000;2023-04-12T05:27:57;4.83;;;2.00;;
28270;SDS011;15527;0.000;0.000;2023-04-12T05:28:56;2.30;;;2.00;;
28270;SDS011;15527;0.000;0.000;2023-04-12T05:29:55;2.97;;;2.40;;
28270;SDS011;15527;0.000;0.000;2023-04-12T05:30:54;4.40;;;2.17;;
28270;SDS011;15527;0.000;0.000;2023-04-12T05:31:53;5.27;;;2.60;;
28270;SDS011;15527;0.000;0.000;2023-04-12T05:32:52;2.67;;;2.43;;
28270;SDS011;15527;0.000;0.000;2023-04-12T05:33:51;5.33;;;2.43;;
28270;SDS011;15527;0.000;0.000;2023-04-12T05:34:51;3.13;;;2.27;;
28270;SDS011;15527;0.000;0.000;2023-04-12T05:35:50;4.77;;;2.20;;
28270;SDS011;15527;0.000;0.000;2023-04-12T05:36:48;3.80;;;2.53;;
28270;SDS011;15527;0.000;0.000;2023-04-12T05:37:47;2.77;;;2.50;;
28270;SDS011;15527;0.000;0.000;2023-04-12T05:38:46;5.80;;;2.20;;
28270;SDS011;15527;0.000;0.000;2023-04-12T05:39:44;3.43;;;2.13;;
28270;SDS011;15527;0.000;0.000;2023-04-12T05:40:43;3.77;;;2.33;;
28270;SDS011;15527;0.000;0.000;2023-04-12T05:41:41;3.97;;;2.40;;
28270;SDS011;15527;0.000;0.000;2023-04-12T05:42:40;6.17;;;2.40;;
28270;SDS011;15527;0.000;0.000;2023-04-12T05:43:38;3.17;;;2.20;;
28270;SDS011;15527;0.000;0.000;2023-04-12T05:44:38;4.43;;;2.60;;
28270;SDS011;15527;0.000;0.000;2023-04-12T05:45:38;3.17;;;2.13;;
28270;SDS011;15527;0.000;0.000;2023-04-12T05:46:38;3.87;;;2.40;;
28270;SDS011;15527;0.000;0.000;2023-04-12T05:47:36;5.87;;;2.70;;
28270;SDS011;15527;0.000;0.000;2023-04-12T05:48:35;3.37;;;2.40;;
28270;SDS011;15527;0.000;0.000;2023-04-12T05:49:34;4.17;;;2.60;;
28270;SDS011;15527;0.000;0.000;2023-04-12T05:50:33;4.63;;;2.43;;
28270;SDS011;15527;0.000;0.000;2023-04-12T05:51:31;4.23;;;2.10;;
28270;SDS011;15527;0.000;0.000;2023-04-12T05:52:30;5.43;;;3.10;;
28270;SDS011;15527;0.000;0.000;2023-04-12T05:53:28;3.80;;;2.63;;
28270;SDS011;15527;0.000;0.000;2023-04-12T05:54:29;3.17;;;2.27;;
28270;SDS011;15527;0.000;0.000;2023-04-12T05:55:28;5.20;;;2.93;;
28270;SDS011;15527;0.000;0.000;2023-04-12T05:56:27;3.10;;;2.77;;
28270;SDS011;15527;0.000;0.000;2023-04-12T05:57:26;3.70;;;2.50;;
28270;SDS011;15527;0.000;0.000;2023-04-12T05:58:24;3.03;;;2.73;;
28270;SDS011;15527;0.000;0.000;2023-04-12T05:59:23;4.60;;;2.73;;
28270;SDS011;15527;0.000;0.000;2023-04-12T06:00:21;3.87;;;2.77;;
28270;SDS011;15527;0.000;0.000;2023-04-12T06:01:21;3.53;;;2.67;;
28270;SDS011;15527;0.000;0.000;2023-04-12T06:02:19;3.20;;;2.73;;
28270;SDS011;15527;0.000;0.000;2023-04-12T06:03:18;3.40;;;2.97;;
28270;SDS011;15527;0.000;0.000;2023-04-12T06:04:16;3.50;;;2.67;;
28270;SDS011;15527;0.000;0.000;2023-04-12T06:05:15;2.73;;;2.30;;
28270;SDS011;15527;0.000;0.000;2023-04-12T06:06:14;4.60;;;2.70;;
28270;SDS011;15527;0.000;0.000;2023-04-12T06:07:13;5.87;;;2.63;;
28270;SDS011;15527;0.000;0.000;2023-04-12T06:08:14;4.07;;;2.83;;
28270;SDS011;15527;0.000;0.000;2023-04-12T06:09:13;4.60;;;2.53;;
28270;SDS011;15527;0.000;0.000;2023-04-12T06:10:13;7.17;;;3.23;;
28270;SDS011;15527;0.000;0.000;2023-04-12T06:11:15;3.47;;;2.67;;
28270;SDS011;15527;0.000;0.000;2023-04-12T06:12:14;3.00;;;2.80;;
28270;SDS011;15527;0.000;0.000;2023-04-12T06:13:13;5.50;;;2.90;;
28270;SDS011;15527;0.000;0.000;2023-04-12T06:14:14;3.73;;;3.43;;
28270;SDS011;15527;0.000;0.000;2023-04-12T06:15:13;5.70;;;2.93;;